Time;durP1;ratioP1;P1;durP2;ratioP2;P2;SDS_P1;SDS_P2;PMS_P1;PMS_P2;Temp;Humidity;BMP_temperature;BMP_pressure;BME280_temperature;BME280_humidity;BME280_pressure;Samples;Min_cycle;Max_cycle;Signal;HPM_P1;HPM_P2
2021/01/29 14:23:39;;;;;;;19.27;3.47;;;13.50;56.50;;;;;;6264838;22;19915;-75
2021/01/29 14:26:15;;;;;;;30.67;5.35;;;13.40;57.60;;;;;;6286971;22;20023;-74
2021/01/29 14:29:02;;;;;;;34.58;4.03;;;13.40;58.80;;;;;;6288225;22;20046;-75
2021/01/29 14:32:00;;;;;;;25.63;4.38;;;13.40;60.00;;;;;;6288629;22;20043;-77
2021/01/29 14:34:54;;;;;;;20.52;4.13;;;13.40;59.80;;;;;;6278890;22;20358;-78
2021/01/29 14:37:39;;;;;;;;;;;13.50;61.30;;;;;;6282591;22;20016;-79
2021/01/29 14:40:29;;;;;;;39.47;5.75;;;13.50;60.20;;;;;;6280172;22;19915;-80
2021/01/29 14:43:10;;;;;;;34.30;3.80;;;13.60;61.80;;;;;;6281253;22;20038;-78
2021/01/29 14:45:46;;;;;;;23.83;4.32;;;13.70;63.00;;;;;;6290957;22;20016;-77
2021/01/29 14:48:18;;;;;;;26.25;4.35;;;13.70;63.10;;;;;;6291386;22;20149;-82
2021/01/29 14:51:07;;;;;;;20.88;4.15;;;13.80;63.50;;;;;;6254613;22;20435;-79
2021/01/29 14:54:05;;;;;;;16.50;3.25;;;13.90;63.50;;;;;;6292363;22;20311;-76
2021/01/29 14:57:00;;;;;;;21.30;3.30;;;14.00;63.50;;;;;;6292052;22;20011;-79
2021/01/29 14:59:32;;;;;;;26.40;5.43;;;14.00;63.20;;;;;;6281149;22;20161;-78
2021/01/29 15:02:22;;;;;;;21.70;3.45;;;14.10;63.60;;;;;;6292010;22;20012;-78
2021/01/29 15:04:52;;;;;;;31.10;4.82;;;14.20;63.40;;;;;;6292064;22;20447;-75
2021/01/29 15:07:30;;;;;;;21.13;3.47;;;14.20;63.30;;;;;;6292225;22;20020;-84
2021/01/29 15:10:19;;;;;;;30.75;4.25;;;14.30;63.70;;;;;;6291775;22;20016;-86
2021/01/29 15:12:46;;;;;;;23.52;3.70;;;14.40;64.10;;;;;;6292700;22;20011;-79
2021/01/29 15:15:18;;;;;;;30.00;4.65;;;14.40;64.10;;;;;;6292244;22;20035;-77
2021/01/29 15:17:53;;;;;;;24.88;4.38;;;14.50;64.50;;;;;;6292046;22;20016;-77
2021/01/29 15:20:38;;;;;;;24.15;3.92;;;14.60;64.80;;;;;;6291928;22;20015;-85
2021/01/29 15:23:13;;;;;;;23.27;4.30;;;14.60;64.60;;;;;;6292401;22;20023;-79
2021/01/29 15:26:02;;;;;;;30.80;5.18;;;14.70;64.90;;;;;;6281814;22;20363;-76
2021/01/29 15:28:29;;;;;;;25.42;4.72;;;14.70;65.50;;;;;;6282304;22;20099;-77
2021/01/29 15:31:04;;;;;;;29.10;4.80;;;14.70;65.50;;;;;;6292453;22;20047;-75
2021/01/29 15:33:30;;;;;;;20.85;5.05;;;14.80;66.40;;;;;;6281545;22;20371;-75
2021/01/29 15:38:45;;;;;;;22.77;4.72;;;14.90;66.10;;;;;;6281663;22;20020;-77
2021/01/29 15:41:31;;;;;;;20.13;5.70;;;15.00;66.80;;;;;;6281664;22;20016;-76
2021/01/29 15:44:03;;;;;;;21.98;5.07;;;15.10;67.40;;;;;;6291041;22;20019;-79
2021/01/29 15:46:48;;;;;;;25.63;4.88;;;15.10;67.10;;;;;;6289810;22;20491;-79
2021/01/29 15:49:20;;;;;;;21.17;4.45;;;15.10;66.80;;;;;;6290082;22;20359;-80
2021/01/29 15:51:46;;;;;;;19.40;3.97;;;15.20;66.30;;;;;;6290205;22;20043;-78
2021/01/29 15:54:20;;;;;;;18.40;4.43;;;15.30;66.30;;;;;;6280407;22;20023;-78
2021/01/29 15:57:03;;;;;;;22.23;3.58;;;15.30;66.40;;;;;;6290524;22;20061;-77
2021/01/29 15:59:37;;;;;;;18.90;4.03;;;15.40;66.30;;;;;;6290382;22;20015;-78
2021/01/29 16:02:40;;;;;;;12.70;3.45;;;15.40;66.60;;;;;;6288788;22;20020;-77
2021/01/29 16:05:43;;;;;;;14.15;3.03;;;15.50;66.50;;;;;;6279833;22;20100;-78
2021/01/29 16:08:21;;;;;;;17.33;3.30;;;15.50;66.30;;;;;;6254092;22;20019;-78
2021/01/29 16:10:49;;;;;;;10.85;1.90;;;15.50;66.20;;;;;;6288880;22;20035;-79
2021/01/29 16:13:37;;;;;;;12.25;3.15;;;15.60;66.30;;;;;;6290139;22;20016;-79
2021/01/29 16:16:12;;;;;;;12.93;2.35;;;15.60;66.40;;;;;;6290976;22;20023;-79
2021/01/29 16:18:48;;;;;;;11.73;2.50;;;15.70;66.30;;;;;;6290093;22;20431;-79
2021/01/29 16:21:13;;;;;;;9.60;2.85;;;15.70;66.40;;;;;;6289593;22;20471;-82
2021/01/29 16:23:42;;;;;;;11.18;3.05;;;15.70;66.20;;;;;;6279708;22;20046;-81
2021/01/29 16:26:18;;;;;;;9.23;2.58;;;15.80;65.90;;;;;;6278899;22;20088;-82
2021/01/29 16:28:48;;;;;;;9.52;1.83;;;15.80;65.60;;;;;;6289921;22;20097;-81
2021/01/29 16:31:48;;;;;;;12.65;2.00;;;15.90;65.90;;;;;;6289121;22;20015;-80
2021/01/29 16:34:23;;;;;;;12.93;2.30;;;15.90;66.10;;;;;;6213899;22;20020;-81
2021/01/29 16:36:55;;;;;;;15.20;3.30;;;15.90;66.80;;;;;;6278670;22;20033;-81
2021/01/29 16:39:40;;;;;;;12.32;2.13;;;15.90;66.30;;;;;;6280038;22;20034;-80
2021/01/29 16:42:29;;;;;;;11.35;2.08;;;16.00;66.00;;;;;;6278982;22;20102;-81
2021/01/29 16:44:58;;;;;;;13.68;2.35;;;16.00;65.90;;;;;;6279334;22;20083;-80
2021/01/29 16:47:43;;;;;;;13.18;2.08;;;16.00;65.60;;;;;;6280289;22;20018;-81
2021/01/29 16:50:20;;;;;;;11.40;2.33;;;16.10;65.40;;;;;;6279566;22;20026;-81
2021/01/29 16:53:06;;;;;;;19.33;2.45;;;16.20;65.80;;;;;;6288171;22;20016;-81
2021/01/29 16:55:34;;;;;;;16.85;2.20;;;16.20;65.70;;;;;;6279581;22;20015;-82
2021/01/29 16:58:23;;;;;;;23.30;2.60;;;16.20;65.80;;;;;;6289278;22;20015;-79
2021/01/29 17:00:52;;;;;;;17.23;2.95;;;16.30;65.70;;;;;;6279244;22;20020;-79
2021/01/29 17:03:35;;;;;;;15.02;2.05;;;16.40;65.30;;;;;;6289492;22;20012;-79
2021/01/29 17:06:12;;;;;;;9.40;1.63;;;16.50;65.10;;;;;;6289934;22;20012;-80
2021/01/29 17:08:38;;;;;;;11.38;1.60;;;16.50;65.10;;;;;;6289989;22;20012;-79
2021/01/29 17:11:19;;;;;;;9.55;1.95;;;16.50;65.20;;;;;;6288490;22;20324;-80
2021/01/29 17:13:46;;;;;;;11.70;1.58;;;16.40;64.90;;;;;;6289229;22;20375;-79
2021/01/29 17:16:18;;;;;;;9.15;1.60;;;16.40;65.10;;;;;;6289668;22;20016;-79
2021/01/29 17:18:45;;;;;;;4.43;1.00;;;16.30;65.20;;;;;;6288717;22;20050;-80
2021/01/29 17:21:11;;;;;;;5.30;1.27;;;16.30;65.00;;;;;;6290157;22;20027;-79
2021/01/29 17:23:37;;;;;;;8.75;1.00;;;16.20;64.80;;;;;;6287665;22;20039;-80
2021/01/29 17:26:09;;;;;;;6.47;1.13;;;16.20;64.70;;;;;;6289381;22;20416;-79
2021/01/29 17:28:45;;;;;;;4.80;1.15;;;16.10;64.50;;;;;;6279409;22;20020;-79
2021/01/29 17:31:14;;;;;;;6.35;1.05;;;16.10;64.50;;;;;;6289220;22;20019;-79
2021/01/29 17:33:45;;;;;;;7.28;1.35;;;16.10;64.80;;;;;;6289701;22;20011;-80
2021/01/29 17:36:45;;;;;;;5.25;0.80;;;16.00;64.90;;;;;;6289565;22;20015;-80
2021/01/29 17:39:13;;;;;;;4.22;0.90;;;16.00;64.70;;;;;;6289547;22;20313;-79
2021/01/29 17:41:40;;;;;;;6.13;1.35;;;15.90;65.00;;;;;;6287786;22;20050;-80
2021/01/29 17:44:28;;;;;;;5.50;0.90;;;15.90;65.30;;;;;;6289162;22;20016;-79
2021/01/29 17:47:13;;;;;;;4.03;0.82;;;15.90;64.80;;;;;;6280220;22;20016;-79
2021/01/29 17:49:40;;;;;;;7.50;1.35;;;15.80;65.00;;;;;;6289327;22;20037;-79
2021/01/29 17:52:12;;;;;;;5.88;0.98;;;15.80;65.10;;;;;;6289412;22;20027;-80
2021/01/29 17:54:39;;;;;;;3.35;0.93;;;15.80;65.10;;;;;;6279787;22;20098;-78
2021/01/29 17:57:35;;;;;;;5.38;1.63;;;15.70;65.10;;;;;;6289126;22;20015;-80
2021/01/29 18:00:09;;;;;;;6.40;1.50;;;15.80;64.20;;;;;;6270114;22;20012;-79
2021/01/29 18:02:36;;;;;;;4.35;0.73;;;15.60;64.10;;;;;;6277125;22;20039;-80
2021/01/29 18:05:07;;;;;;;5.60;0.98;;;15.60;64.00;;;;;;6288825;22;20415;-80
2021/01/29 18:07:36;;;;;;;2.92;1.27;;;15.50;64.10;;;;;;6288742;22;20022;-79
2021/01/29 18:10:30;;;;;;;4.65;0.90;;;15.50;64.10;;;;;;6277268;22;20061;-80
2021/01/29 18:12:57;;;;;;;;;;;15.50;63.80;;;;;;6289707;22;20016;-80
2021/01/29 18:16:00;;;;;;;5.70;1.60;;;15.40;63.90;;;;;;6289295;22;19915;-79
2021/01/29 18:18:34;;;;;;;3.50;1.38;;;15.40;63.80;;;;;;6288664;22;20023;-76
2021/01/29 18:21:16;;;;;;;7.43;1.10;;;15.40;63.50;;;;;;6289190;22;20019;-78
2021/01/29 18:23:44;;;;;;;6.60;1.20;;;15.30;63.80;;;;;;6276196;22;20077;-78
2021/01/29 18:26:12;;;;;;;7.15;1.20;;;15.30;63.60;;;;;;6277287;22;20081;-78
2021/01/29 18:28:40;;;;;;;4.30;1.10;;;15.30;63.60;;;;;;6288571;22;20023;-79
2021/01/29 18:31:07;;;;;;;4.38;0.95;;;15.30;64.00;;;;;;6289165;22;20016;-80
2021/01/29 18:33:39;;;;;;;9.93;1.10;;;15.20;63.70;;;;;;6289063;22;20016;-77
2021/01/29 18:36:09;;;;;;;5.40;1.25;;;15.20;63.70;;;;;;6289191;22;20012;-75
2021/01/29 18:38:36;;;;;;;9.18;1.17;;;15.20;63.20;;;;;;6289573;22;20012;-76
2021/01/29 18:41:03;;;;;;;5.43;1.35;;;15.10;63.20;;;;;;6289139;22;20012;-76
2021/01/29 18:43:30;;;;;;;3.47;1.08;;;15.10;63.20;;;;;;6278806;22;20012;-76
2021/01/29 18:45:55;;;;;;;5.10;1.10;;;15.10;62.90;;;;;;6289358;22;20030;-75
2021/01/29 18:48:22;;;;;;;4.60;1.30;;;15.10;63.00;;;;;;6288742;22;20019;-76
2021/01/29 18:50:49;;;;;;;2.30;1.10;;;15.10;62.90;;;;;;6288752;22;20016;-76
2021/01/29 18:53:16;;;;;;;3.97;1.48;;;15.00;62.60;;;;;;6289158;22;20095;-75
2021/01/29 18:55:42;;;;;;;3.63;1.50;;;15.00;62.40;;;;;;6288683;22;20050;-76
2021/01/29 18:58:09;;;;;;;4.03;1.27;;;15.00;62.40;;;;;;6289306;22;20076;-75
2021/01/29 19:00:34;;;;;;;2.90;0.80;;;15.00;62.30;;;;;;6278740;22;20062;-76
2021/01/29 19:03:00;;;;;;;6.00;1.02;;;14.90;62.30;;;;;;6288506;22;20020;-75
2021/01/29 19:05:29;;;;;;;3.13;1.10;;;14.90;62.20;;;;;;6278632;22;20048;-75
2021/01/29 19:07:56;;;;;;;1.27;0.75;;;14.90;62.10;;;;;;6289011;22;20095;-75
2021/01/29 19:10:23;;;;;;;2.38;0.95;;;14.90;62.20;;;;;;6288903;22;20012;-76
2021/01/29 19:12:49;;;;;;;3.00;1.10;;;14.90;62.20;;;;;;6288613;22;20428;-75
2021/01/29 19:15:16;;;;;;;3.70;0.90;;;14.90;62.20;;;;;;6279139;22;20090;-75
2021/01/29 19:17:43;;;;;;;5.55;1.13;;;14.80;62.10;;;;;;6288235;22;20294;-75
2021/01/29 19:20:11;;;;;;;3.13;1.02;;;14.80;62.10;;;;;;6289231;22;20015;-75
2021/01/29 19:22:36;;;;;;;2.72;0.77;;;14.80;62.10;;;;;;6290207;22;20065;-75
2021/01/29 19:25:07;;;;;;;2.97;0.82;;;14.80;62.00;;;;;;6279418;22;20375;-79
2021/01/29 19:27:33;;;;;;;3.97;1.00;;;14.80;62.00;;;;;;6289613;22;20012;-79
2021/01/29 19:30:01;;;;;;;2.53;1.30;;;14.80;62.00;;;;;;6288784;22;20016;-79
2021/01/29 19:32:31;;;;;;;3.97;1.42;;;14.80;61.90;;;;;;6288895;22;20073;-79
2021/01/29 19:34:58;;;;;;;2.53;1.13;;;14.80;61.80;;;;;;6288979;22;20015;-79
2021/01/29 19:37:24;;;;;;;1.58;1.20;;;14.80;61.50;;;;;;6278303;22;20133;-78
2021/01/29 19:39:50;;;;;;;2.78;1.10;;;14.80;61.50;;;;;;6288898;22;20020;-78
2021/01/29 19:42:16;;;;;;;3.65;0.90;;;14.80;61.50;;;;;;6288784;22;20020;-79
2021/01/29 19:44:43;;;;;;;2.20;0.82;;;14.80;61.40;;;;;;6289111;22;20305;-79
2021/01/29 19:47:09;;;;;;;3.03;0.77;;;14.80;61.30;;;;;;6288679;22;20019;-78
2021/01/29 19:49:36;;;;;;;2.45;0.63;;;14.80;61.30;;;;;;6288227;22;20030;-79
2021/01/29 19:52:02;;;;;;;2.20;0.80;;;14.80;61.20;;;;;;6289832;22;20027;-79
2021/01/29 19:54:28;;;;;;;2.10;1.23;;;14.80;61.10;;;;;;6288971;22;20016;-78
2021/01/29 19:56:54;;;;;;;1.40;0.85;;;14.80;61.10;;;;;;6288880;22;20016;-78
2021/01/29 19:59:20;;;;;;;2.17;1.00;;;14.80;61.10;;;;;;6288998;22;20083;-78
2021/01/29 20:01:46;;;;;;;4.95;0.88;;;14.70;60.90;;;;;;6289837;22;20092;-78
2021/01/29 20:04:14;;;;;;;4.72;0.93;;;14.70;60.80;;;;;;6289083;22;20370;-78
2021/01/29 20:06:39;;;;;;;2.10;0.90;;;14.80;60.60;;;;;;6290029;22;20024;-78
2021/01/29 20:09:06;;;;;;;2.22;1.05;;;14.80;60.50;;;;;;6290233;22;20012;-78
2021/01/29 20:11:36;;;;;;;4.45;1.08;;;14.80;60.40;;;;;;6280047;22;20012;-77
2021/01/29 20:14:04;;;;;;;2.33;0.80;;;14.80;60.60;;;;;;6289189;22;20026;-78
2021/01/29 20:16:31;;;;;;;2.58;1.02;;;14.80;60.50;;;;;;6289875;22;20480;-78
2021/01/29 20:18:58;;;;;;;2.78;0.70;;;14.70;61.00;;;;;;6288943;22;20091;-80
2021/01/29 20:21:24;;;;;;;2.75;1.15;;;14.80;60.40;;;;;;6279987;22;20016;-80
2021/01/29 20:23:52;;;;;;;3.40;0.90;;;14.80;60.20;;;;;;6287750;22;20038;-82
2021/01/29 20:26:23;;;;;;;2.72;1.10;;;14.80;60.10;;;;;;6278611;22;20090;-80
2021/01/29 20:28:49;;;;;;;3.35;1.33;;;14.80;60.30;;;;;;6290042;22;20040;-78
2021/01/29 20:31:18;;;;;;;2.38;1.20;;;14.80;60.50;;;;;;6290339;22;20088;-77
2021/01/29 20:33:48;;;;;;;1.73;0.70;;;14.80;60.50;;;;;;6289771;22;20034;-78
2021/01/29 20:36:16;;;;;;;2.50;1.15;;;14.70;60.50;;;;;;6289796;22;20020;-78
2021/01/29 20:38:44;;;;;;;1.92;0.80;;;14.70;60.60;;;;;;6290061;22;20065;-77
2021/01/29 20:41:14;;;;;;;2.35;0.60;;;14.70;60.60;;;;;;6289976;22;20008;-78
2021/01/29 20:43:41;;;;;;;2.45;0.70;;;14.70;60.60;;;;;;6289502;22;20042;-78
2021/01/29 20:46:10;;;;;;;1.65;1.00;;;14.70;60.70;;;;;;6289825;22;20011;-78
2021/01/29 20:48:37;;;;;;;4.40;0.85;;;14.70;60.60;;;;;;6290075;22;20015;-78
2021/01/29 20:51:05;;;;;;;3.53;0.80;;;14.70;60.60;;;;;;6289862;22;20011;-78
2021/01/29 20:53:33;;;;;;;2.08;0.77;;;14.70;60.50;;;;;;6289527;22;20312;-78
2021/01/29 20:56:00;;;;;;;2.20;0.70;;;14.70;60.40;;;;;;6279871;22;20027;-78
2021/01/29 20:58:27;;;;;;;2.85;0.80;;;14.70;60.40;;;;;;6289548;22;20450;-77
2021/01/29 21:00:55;;;;;;;1.17;0.60;;;14.70;60.40;;;;;;6290319;22;20357;-78
2021/01/29 21:03:25;;;;;;;1.83;0.70;;;14.70;60.40;;;;;;6290077;22;20016;-78
2021/01/29 21:05:53;;;;;;;2.42;1.00;;;14.70;60.30;;;;;;6289986;22;20012;-78
2021/01/29 21:08:22;;;;;;;2.53;0.82;;;14.70;60.20;;;;;;6288683;22;20476;-78
2021/01/29 21:10:49;;;;;;;1.13;0.73;;;14.70;60.20;;;;;;6290227;22;20018;-79
2021/01/29 21:13:16;;;;;;;1.60;0.63;;;14.70;60.20;;;;;;6289720;22;20022;-78
2021/01/29 21:15:43;;;;;;;1.48;0.63;;;14.70;60.20;;;;;;6289920;22;20019;-82
2021/01/29 21:18:13;;;;;;;1.85;0.88;;;14.70;60.20;;;;;;6289759;22;20015;-78
2021/01/29 21:20:41;;;;;;;1.98;0.70;;;14.70;60.30;;;;;;6289305;22;20012;-78
2021/01/29 21:23:31;;;;;;;5.15;0.70;;;14.70;60.30;;;;;;6290258;22;20016;-85
2021/01/29 21:25:59;;;;;;;3.67;0.85;;;14.70;60.20;;;;;;6279130;22;20432;-78
2021/01/29 21:28:25;;;;;;;3.53;0.93;;;14.70;60.10;;;;;;6289409;22;20027;-79
2021/01/29 21:30:51;;;;;;;1.55;0.57;;;14.70;60.10;;;;;;6289656;22;20023;-78
2021/01/29 21:33:18;;;;;;;3.38;0.80;;;14.70;60.10;;;;;;6289151;22;20023;-79
2021/01/29 21:35:47;;;;;;;3.05;0.70;;;14.70;60.10;;;;;;6277347;22;20095;-79
2021/01/29 21:38:20;;;;;;;1.77;0.68;;;14.70;60.00;;;;;;6288836;22;20363;-79
2021/01/29 21:40:46;;;;;;;2.58;0.63;;;14.70;59.80;;;;;;6288973;22;20008;-78
2021/01/29 21:43:13;;;;;;;1.80;0.80;;;14.60;59.70;;;;;;6289372;22;20012;-78
2021/01/29 21:45:42;;;;;;;2.60;0.70;;;14.60;59.60;;;;;;6288525;22;20015;-79
2021/01/29 21:48:12;;;;;;;2.88;0.90;;;14.60;59.50;;;;;;6289302;22;20413;-78
2021/01/29 21:50:38;;;;;;;2.17;1.08;;;14.60;59.40;;;;;;6289224;22;20012;-79
2021/01/29 21:53:04;;;;;;;2.03;1.08;;;14.60;59.30;;;;;;6289027;22;20090;-79
2021/01/29 21:55:30;;;;;;;3.25;0.93;;;14.60;59.10;;;;;;6287555;22;20312;-78
2021/01/29 21:57:57;;;;;;;1.83;0.70;;;14.60;59.10;;;;;;6289258;22;20077;-78
2021/01/29 22:00:24;;;;;;;1.85;0.77;;;14.60;59.10;;;;;;6289008;22;20012;-78
2021/01/29 22:02:50;;;;;;;1.52;0.85;;;14.60;59.10;;;;;;6277561;22;20051;-79
2021/01/29 22:05:20;;;;;;;3.22;0.90;;;14.60;59.00;;;;;;6289179;22;20023;-78
2021/01/29 22:07:46;;;;;;;2.17;0.93;;;14.60;59.00;;;;;;6288106;22;20026;-78
2021/01/29 22:10:15;;;;;;;1.25;0.65;;;14.60;59.00;;;;;;6289005;22;20015;-78
2021/01/29 22:12:41;;;;;;;1.95;0.70;;;14.60;59.00;;;;;;6289043;22;20077;-78
2021/01/29 22:15:09;;;;;;;3.78;1.20;;;14.60;59.00;;;;;;6288840;22;20023;-79
2021/01/29 22:17:35;;;;;;;2.17;1.05;;;14.50;58.90;;;;;;6289126;22;20098;-78
2021/01/29 22:20:01;;;;;;;1.77;1.00;;;14.50;58.70;;;;;;6289797;22;20334;-78
2021/01/29 22:22:27;;;;;;;1.58;0.60;;;14.50;58.70;;;;;;6289080;22;20026;-78
2021/01/29 22:24:53;;;;;;;4.55;0.68;;;14.50;58.70;;;;;;6283360;22;20016;-78
2021/01/29 22:27:21;;;;;;;1.90;0.70;;;14.50;58.60;;;;;;6288808;22;20098;-79
2021/01/29 22:29:48;;;;;;;1.73;0.95;;;14.50;58.60;;;;;;6288795;22;20015;-78
2021/01/29 22:32:15;;;;;;;3.35;0.80;;;14.50;58.60;;;;;;6288960;22;20353;-78
2021/01/29 22:34:42;;;;;;;2.58;0.95;;;14.50;58.50;;;;;;6289151;22;20420;-78
2021/01/29 22:37:09;;;;;;;3.22;0.82;;;14.50;58.40;;;;;;6279018;22;20016;-78
2021/01/29 22:39:35;;;;;;;2.42;0.70;;;14.40;58.30;;;;;;6289237;22;20384;-78
2021/01/29 22:42:01;;;;;;;2.03;0.90;;;14.40;58.20;;;;;;6279519;22;20043;-78
2021/01/29 22:44:27;;;;;;;1.15;0.70;;;14.40;58.20;;;;;;6278777;22;20042;-78
2021/01/29 22:46:53;;;;;;;2.05;0.60;;;14.40;58.20;;;;;;6277556;22;20024;-79
2021/01/29 22:49:19;;;;;;;2.38;0.65;;;14.40;58.10;;;;;;6277270;22;20320;-78
2021/01/29 22:51:49;;;;;;;3.22;0.98;;;14.40;58.10;;;;;;6288630;22;20016;-78
2021/01/29 22:54:15;;;;;;;2.47;0.57;;;14.30;58.00;;;;;;6277780;22;20023;-79
2021/01/29 22:56:45;;;;;;;1.50;0.50;;;14.30;57.90;;;;;;6289750;22;20012;-78
2021/01/29 22:59:12;;;;;;;1.40;0.50;;;14.30;57.90;;;;;;6290908;22;20042;-78
2021/01/29 23:01:39;;;;;;;2.05;0.80;;;14.30;57.90;;;;;;6290076;22;20094;-79
2021/01/29 23:04:05;;;;;;;2.30;0.68;;;14.30;57.80;;;;;;6280156;22;20066;-78
2021/01/29 23:06:31;;;;;;;1.40;0.50;;;14.30;57.80;;;;;;6291245;22;20086;-79
2021/01/29 23:08:58;;;;;;;1.42;0.35;;;14.30;57.80;;;;;;6291102;22;20016;-79
2021/01/29 23:11:25;;;;;;;1.17;0.57;;;14.20;57.80;;;;;;6291274;22;20019;-79
2021/01/29 23:13:51;;;;;;;1.70;0.70;;;14.20;57.70;;;;;;6290725;22;20020;-78
2021/01/29 23:16:21;;;;;;;1.10;0.40;;;14.20;57.60;;;;;;6289495;22;20015;-78
2021/01/29 23:18:51;;;;;;;3.63;0.60;;;14.20;57.60;;;;;;6290602;22;20023;-78
2021/01/29 23:21:17;;;;;;;3.55;0.50;;;14.20;57.50;;;;;;6289416;22;20073;-78
2021/01/29 23:23:43;;;;;;;1.55;0.50;;;14.20;57.50;;;;;;6288960;22;20019;-79
2021/01/29 23:26:11;;;;;;;1.08;0.43;;;14.10;57.40;;;;;;6291530;22;20035;-78
2021/01/29 23:28:37;;;;;;;0.57;0.30;;;14.10;57.40;;;;;;6289897;22;20022;-79
2021/01/29 23:31:04;;;;;;;1.75;0.60;;;14.10;57.40;;;;;;6279124;22;20016;-79
2021/01/29 23:33:30;;;;;;;1.50;0.43;;;14.10;57.40;;;;;;6290896;22;20016;-79
2021/01/29 23:35:57;;;;;;;0.98;0.32;;;14.10;57.40;;;;;;6290521;22;20015;-79
2021/01/29 23:38:24;;;;;;;1.75;0.60;;;14.10;57.30;;;;;;6290802;22;20047;-79
2021/01/29 23:40:51;;;;;;;1.50;0.65;;;14.10;57.30;;;;;;6253898;22;20027;-79
2021/01/29 23:43:18;;;;;;;1.45;0.50;;;14.10;57.20;;;;;;6289660;22;20011;-79
2021/01/29 23:45:44;;;;;;;1.42;0.30;;;14.10;57.30;;;;;;6280011;22;20012;-78
2021/01/29 23:48:13;;;;;;;1.10;0.40;;;14.00;57.30;;;;;;6291139;22;20400;-79
2021/01/29 23:50:39;;;;;;;3.10;0.38;;;14.10;57.40;;;;;;6290616;22;20169;-78
2021/01/29 23:53:07;;;;;;;1.83;0.30;;;14.00;57.30;;;;;;6289918;22;20058;-78
2021/01/29 23:55:33;;;;;;;2.25;0.88;;;14.00;57.30;;;;;;6280104;22;20314;-78
2021/01/29 23:58:00;;;;;;;2.47;0.77;;;14.00;57.40;;;;;;6290514;22;20042;-78
